sensor_id;sensor_type;location;lat;lon;timestamp;pressure;altitude;pressure_sealevel;temperature;humidity
49801;BME280;35698;50.232;30.540;2022-09-09T00:10:33;101057.86;;;13.91;51.74
49801;BME280;35698;50.232;30.540;2022-09-09T00:11:51;101053.67;;;13.87;51.91
49801;BME280;35698;50.232;30.540;2022-09-09T00:15:57;101052.94;;;13.85;52.11
49801;BME280;35698;50.232;30.540;2022-09-09T00:21:35;101051.23;;;13.84;52.10
49801;BME280;35698;50.232;30.540;2022-09-09T00:22:54;101063.34;;;13.88;51.88
49801;BME280;35698;50.232;30.540;2022-09-09T00:26:48;101069.22;;;13.79;52.12
49801;BME280;35698;50.232;30.540;2022-09-09T00:27:54;101069.84;;;13.68;52.12
49801;BME280;35698;50.232;30.540;2022-09-09T00:31:27;101075.06;;;13.54;52.61
49801;BME280;35698;50.232;30.540;2022-09-09T00:32:39;101076.27;;;13.64;52.47
49801;BME280;35698;50.232;30.540;2022-09-09T00:33:43;101074.38;;;13.51;52.50
49801;BME280;35698;50.232;30.540;2022-09-09T00:35:03;101086.03;;;13.64;52.45
49801;BME280;35698;50.232;30.540;2022-09-09T00:36:10;101079.86;;;13.48;52.59
49801;BME280;35698;50.232;30.540;2022-09-09T00:37:24;101079.78;;;13.49;52.84
49801;BME280;35698;50.232;30.540;2022-09-09T00:38:33;101082.26;;;13.36;52.77
49801;BME280;35698;50.232;30.540;2022-09-09T00:39:46;101083.45;;;13.47;52.96
49801;BME280;35698;50.232;30.540;2022-09-09T00:40:55;101090.22;;;13.36;52.83
49801;BME280;35698;50.232;30.540;2022-09-09T00:43:36;101099.30;;;13.48;52.62
49801;BME280;35698;50.232;30.540;2022-09-09T00:47:52;101106.28;;;13.18;53.28
49801;BME280;35698;50.232;30.540;2022-09-09T00:49:27;101102.53;;;13.22;53.44
49801;BME280;35698;50.232;30.540;2022-09-09T00:53:56;101104.48;;;13.18;53.58
49801;BME280;35698;50.232;30.540;2022-09-09T00:56:20;101111.51;;;13.19;53.61
49801;BME280;35698;50.232;30.540;2022-09-09T00:58:52;101114.63;;;13.10;53.79
49801;BME280;35698;50.232;30.540;2022-09-09T01:01:35;101115.23;;;13.15;53.68
49801;BME280;35698;50.232;30.540;2022-09-09T01:03:56;101119.99;;;13.26;53.32
49801;BME280;35698;50.232;30.540;2022-09-09T01:06:33;101125.13;;;13.29;53.02
49801;BME280;35698;50.232;30.540;2022-09-09T01:07:37;101119.08;;;13.09;53.19
49801;BME280;35698;50.232;30.540;2022-09-09T01:10:00;101126.87;;;13.12;52.96
49801;BME280;35698;50.232;30.540;2022-09-09T01:11:20;101121.56;;;13.12;53.41
49801;BME280;35698;50.232;30.540;2022-09-09T01:12:41;101124.20;;;12.97;53.61
49801;BME280;35698;50.232;30.540;2022-09-09T01:14:10;101121.89;;;13.06;53.73
49801;BME280;35698;50.232;30.540;2022-09-09T01:15:09;101123.43;;;12.95;53.64
49801;BME280;35698;50.232;30.540;2022-09-09T01:16:21;101130.17;;;13.00;53.86
49801;BME280;35698;50.232;30.540;2022-09-09T01:17:28;101129.05;;;12.89;53.66
49801;BME280;35698;50.232;30.540;2022-09-09T01:18:48;101121.97;;;13.05;53.62
49801;BME280;35698;50.232;30.540;2022-09-09T01:21:26;101127.27;;;12.89;53.84
49801;BME280;35698;50.232;30.540;2022-09-09T01:24:36;101126.80;;;12.81;53.71
49801;BME280;35698;50.232;30.540;2022-09-09T01:27:00;101120.64;;;12.80;53.75
49801;BME280;35698;50.232;30.540;2022-09-09T01:28:18;101122.20;;;12.85;53.93
49801;BME280;35698;50.232;30.540;2022-09-09T01:29:22;101124.71;;;12.70;54.12
49801;BME280;35698;50.232;30.540;2022-09-09T01:30:26;101118.55;;;12.70;53.97
49801;BME280;35698;50.232;30.540;2022-09-09T01:32:57;101125.88;;;12.82;53.58
49801;BME280;35698;50.232;30.540;2022-09-09T01:34:01;101119.25;;;12.73;53.57
49801;BME280;35698;50.232;30.540;2022-09-09T01:36:42;101117.77;;;12.68;53.67
49801;BME280;35698;50.232;30.540;2022-09-09T01:37:54;101116.68;;;12.72;53.92
49801;BME280;35698;50.232;30.540;2022-09-09T01:38:57;101116.85;;;12.52;54.17
49801;BME280;35698;50.232;30.540;2022-09-09T01:40:01;101118.48;;;12.54;54.07
49801;BME280;35698;50.232;30.540;2022-09-09T01:41:05;101120.12;;;12.57;53.95
49801;BME280;35698;50.232;30.540;2022-09-09T01:42:17;101116.84;;;12.69;53.91
49801;BME280;35698;50.232;30.540;2022-09-09T01:43:21;101115.76;;;12.56;53.93
49801;BME280;35698;50.232;30.540;2022-09-09T01:44:34;101119.49;;;12.69;53.90
49801;BME280;35698;50.232;30.540;2022-09-09T01:45:42;101114.50;;;12.63;53.73
49801;BME280;35698;50.232;30.540;2022-09-09T01:46:55;101111.91;;;12.78;53.39
49801;BME280;35698;50.232;30.540;2022-09-09T01:47:59;101115.98;;;12.68;53.41
49801;BME280;35698;50.232;30.540;2022-09-09T01:49:11;101117.84;;;12.84;53.31
49801;BME280;35698;50.232;30.540;2022-09-09T01:50:16;101110.60;;;12.70;53.24
49801;BME280;35698;50.232;30.540;2022-09-09T01:51:20;101109.58;;;12.72;53.02
49801;BME280;35698;50.232;30.540;2022-09-09T01:52:24;101111.45;;;12.70;52.89
49801;BME280;35698;50.232;30.540;2022-09-09T01:53:36;101107.23;;;12.84;52.87
49801;BME280;35698;50.232;30.540;2022-09-09T01:54:40;101105.91;;;12.75;52.86
49801;BME280;35698;50.232;30.540;2022-09-09T01:55:52;101098.90;;;12.74;52.72
49801;BME280;35698;50.232;30.540;2022-09-09T01:57:26;101105.44;;;12.84;52.72
49801;BME280;35698;50.232;30.540;2022-09-09T01:58:46;101107.79;;;12.73;52.71
49801;BME280;35698;50.232;30.540;2022-09-09T02:00:04;101100.38;;;12.79;52.76
49801;BME280;35698;50.232;30.540;2022-09-09T02:03:06;101101.95;;;12.66;52.79
49801;BME280;35698;50.232;30.540;2022-09-09T02:05:45;101102.11;;;12.63;52.65
49801;BME280;35698;50.232;30.540;2022-09-09T02:06:56;101107.87;;;12.71;52.76
49801;BME280;35698;50.232;30.540;2022-09-09T02:08:11;101095.33;;;12.58;52.80
49801;BME280;35698;50.232;30.540;2022-09-09T02:09:25;101093.22;;;12.64;52.90
49801;BME280;35698;50.232;30.540;2022-09-09T02:10:38;101101.89;;;12.51;52.79
49801;BME280;35698;50.232;30.540;2022-09-09T02:11:44;101102.13;;;12.46;53.00
49801;BME280;35698;50.232;30.540;2022-09-09T02:13:12;101097.36;;;12.53;53.23
49801;BME280;35698;50.232;30.540;2022-09-09T02:14:19;101096.20;;;12.41;53.22
49801;BME280;35698;50.232;30.540;2022-09-09T02:15:34;101093.86;;;12.52;53.30
49801;BME280;35698;50.232;30.540;2022-09-09T02:16:42;101091.76;;;12.41;53.20
49801;BME280;35698;50.232;30.540;2022-09-09T02:17:58;101090.27;;;12.53;53.27
49801;BME280;35698;50.232;30.540;2022-09-09T02:19:16;101097.29;;;12.37;53.34
49801;BME280;35698;50.232;30.540;2022-09-09T02:20:29;101094.02;;;12.49;53.44
49801;BME280;35698;50.232;30.540;2022-09-09T02:21:36;101096.28;;;12.39;53.30
49801;BME280;35698;50.232;30.540;2022-09-09T02:22:42;101092.69;;;12.40;53.37
49801;BME280;35698;50.232;30.540;2022-09-09T02:23:56;101095.73;;;12.50;53.42
49801;BME280;35698;50.232;30.540;2022-09-09T02:25:02;101098.92;;;12.39;53.30
49801;BME280;35698;50.232;30.540;2022-09-09T02:26:26;101096.74;;;12.47;53.29
49801;BME280;35698;50.232;30.540;2022-09-09T02:27:30;101102.36;;;12.41;53.30
49801;BME280;35698;50.232;30.540;2022-09-09T02:28:41;101094.55;;;12.56;53.20
49801;BME280;35698;50.232;30.540;2022-09-09T02:29:45;101097.84;;;12.43;53.25
49801;BME280;35698;50.232;30.540;2022-09-09T02:30:50;101099.55;;;12.44;53.29
49801;BME280;35698;50.232;30.540;2022-09-09T02:31:56;101101.42;;;12.42;53.35
49801;BME280;35698;50.232;30.540;2022-09-09T02:33:10;101093.00;;;12.52;53.44
49801;BME280;35698;50.232;30.540;2022-09-09T02:34:16;101101.34;;;12.44;53.48
49801;BME280;35698;50.232;30.540;2022-09-09T02:35:30;101098.06;;;12.56;53.38
49801;BME280;35698;50.232;30.540;2022-09-09T02:36:37;101097.91;;;12.42;53.46
49801;BME280;35698;50.232;30.540;2022-09-09T02:37:42;101097.84;;;12.43;53.52
49801;BME280;35698;50.232;30.540;2022-09-09T02:38:55;101098.92;;;12.57;53.34
49801;BME280;35698;50.232;30.540;2022-09-09T02:39:59;101093.23;;;12.47;53.27
49801;BME280;35698;50.232;30.540;2022-09-09T02:41:03;101094.17;;;12.46;53.45
49801;BME280;35698;50.232;30.540;2022-09-09T02:42:06;101096.74;;;12.47;53.50
49801;BME280;35698;50.232;30.540;2022-09-09T02:43:17;101094.79;;;12.51;53.67
49801;BME280;35698;50.232;30.540;2022-09-09T02:44:21;101090.82;;;12.42;53.71
49801;BME280;35698;50.232;30.540;2022-09-09T02:45:27;101091.91;;;12.38;53.72
49801;BME280;35698;50.232;30.540;2022-09-09T02:48:04;101099.70;;;12.41;53.62
49801;BME280;35698;50.232;30.540;2022-09-09T02:52:07;101089.58;;;12.32;53.80
49801;BME280;35698;50.232;30.540;2022-09-09T02:54:40;101090.82;;;12.42;53.81
49801;BME280;35698;50.232;30.540;2022-09-09T02:55:50;101090.28;;;12.36;53.66
49801;BME280;35698;50.232;30.540;2022-09-09T02:57:08;101091.44;;;12.47;53.58
49801;BME280;35698;50.232;30.540;2022-09-09T02:58:31;101089.34;;;12.37;53.50
49801;BME280;35698;50.232;30.540;2022-09-09T02:59:35;101093.78;;;12.36;53.48
49801;BME280;35698;50.232;30.540;2022-09-09T03:00:39;101088.56;;;12.35;53.26
49801;BME280;35698;50.232;30.540;2022-09-09T03:01:44;101089.66;;;12.31;53.39
49801;BME280;35698;50.232;30.540;2022-09-09T03:02:47;101097.52;;;12.32;53.29
49801;BME280;35698;50.232;30.540;2022-09-09T03:03:58;101096.83;;;12.46;53.41
49801;BME280;35698;50.232;30.540;2022-09-09T03:05:01;101097.37;;;12.35;53.65
49801;BME280;35698;50.232;30.540;2022-09-09T03:06:13;101101.97;;;12.49;53.50
49801;BME280;35698;50.232;30.540;2022-09-09T03:07:16;101095.50;;;12.37;53.46
49801;BME280;35698;50.232;30.540;2022-09-09T03:08:28;101095.03;;;12.46;53.50
49801;BME280;35698;50.232;30.540;2022-09-09T03:09:32;101102.82;;;12.32;53.46
49801;BME280;35698;50.232;30.540;2022-09-09T03:10:35;101105.31;;;12.35;53.42
49801;BME280;35698;50.232;30.540;2022-09-09T03:11:39;101111.40;;;12.37;53.38
49801;BME280;35698;50.232;30.540;2022-09-09T03:12:42;101115.53;;;12.43;53.33
49801;BME280;35698;50.232;30.540;2022-09-09T03:13:54;101110.30;;;12.59;53.29
49801;BME280;35698;50.232;30.540;2022-09-09T03:14:57;101121.61;;;12.45;53.20
49801;BME280;35698;50.232;30.540;2022-09-09T03:16:01;101119.73;;;12.47;53.12
49801;BME280;35698;50.232;30.540;2022-09-09T03:17:05;101122.39;;;12.47;53.30
49801;BME280;35698;50.232;30.540;2022-09-09T03:18:09;101131.42;;;12.43;53.50
49801;BME280;35698;50.232;30.540;2022-09-09T03:19:20;101128.23;;;12.54;53.51
49801;BME280;35698;50.232;30.540;2022-09-09T03:20:27;101130.57;;;12.42;53.47
49801;BME280;35698;50.232;30.540;2022-09-09T03:21:38;101118.80;;;12.48;53.72
49801;BME280;35698;50.232;30.540;2022-09-09T03:22:42;101135.24;;;12.37;53.79
49801;BME280;35698;50.232;30.540;2022-09-09T03:23:53;101127.06;;;12.42;53.98
49801;BME280;35698;50.232;30.540;2022-09-09T03:24:56;101126.90;;;12.28;54.08
49801;BME280;35698;50.232;30.540;2022-09-09T03:25:59;101127.76;;;12.28;54.49
49801;BME280;35698;50.232;30.540;2022-09-09T03:27:03;101131.19;;;12.30;54.49
49801;BME280;35698;50.232;30.540;2022-09-09T03:28:14;101131.27;;;12.46;54.54
49801;BME280;35698;50.232;30.540;2022-09-09T03:29:17;101126.44;;;12.37;54.23
49801;BME280;35698;50.232;30.540;2022-09-09T03:30:29;101125.58;;;12.54;53.85
49801;BME280;35698;50.232;30.540;2022-09-09T03:31:33;101124.26;;;12.45;53.52
49801;BME280;35698;50.232;30.540;2022-09-09T03:32:37;101122.30;;;12.48;53.17
49801;BME280;35698;50.232;30.540;2022-09-09T03:33:48;101126.13;;;12.60;53.17
49801;BME280;35698;50.232;30.540;2022-09-09T03:34:51;101120.44;;;12.51;53.23
49801;BME280;35698;50.232;30.540;2022-09-09T03:35:55;101125.58;;;12.54;53.02
49801;BME280;35698;50.232;30.540;2022-09-09T03:36:59;101130.26;;;12.48;53.13
49801;BME280;35698;50.232;30.540;2022-09-09T03:38:10;101127.92;;;12.60;53.27
49801;BME280;35698;50.232;30.540;2022-09-09T03:39:14;101135.41;;;12.52;53.58
49801;BME280;35698;50.232;30.540;2022-09-09T03:40:25;101125.89;;;12.65;53.50
49801;BME280;35698;50.232;30.540;2022-09-09T03:41:29;101131.73;;;12.54;53.32
49801;BME280;35698;50.232;30.540;2022-09-09T03:42:33;101132.67;;;12.53;53.29
49801;BME280;35698;50.232;30.540;2022-09-09T03:43:44;101131.81;;;12.70;53.15
49801;BME280;35698;50.232;30.540;2022-09-09T03:44:48;101131.50;;;12.59;53.13
49801;BME280;35698;50.232;30.540;2022-09-09T03:45:52;101129.55;;;12.62;53.34
49801;BME280;35698;50.232;30.540;2022-09-09T03:46:56;101128.45;;;12.66;53.19
49801;BME280;35698;50.232;30.540;2022-09-09T03:47:59;101135.48;;;12.67;53.02
49801;BME280;35698;50.232;30.540;2022-09-09T03:49:10;101136.31;;;12.85;53.00
49801;BME280;35698;50.232;30.540;2022-09-09T03:50:14;101140.14;;;12.79;52.86
49801;BME280;35698;50.232;30.540;2022-09-09T03:51:18;101136.39;;;12.84;52.63
49801;BME280;35698;50.232;30.540;2022-09-09T03:52:30;101134.73;;;12.98;52.48
49801;BME280;35698;50.232;30.540;2022-09-09T03:53:34;101132.56;;;12.89;52.51
49801;BME280;35698;50.232;30.540;2022-09-09T03:54:45;101128.21;;;13.04;52.54
49801;BME280;35698;50.232;30.540;2022-09-09T03:55:51;101128.73;;;12.95;52.33
49801;BME280;35698;50.232;30.540;2022-09-09T03:56:55;101136.69;;;12.95;52.13
49801;BME280;35698;50.232;30.540;2022-09-09T03:57:58;101137.55;;;12.95;52.12
49801;BME280;35698;50.232;30.540;2022-09-09T03:59:09;101131.03;;;13.01;52.26
49801;BME280;35698;50.232;30.540;2022-09-09T04:00:13;101138.64;;;12.91;52.36
49801;BME280;35698;50.232;30.540;2022-09-09T04:01:18;101139.50;;;12.92;52.44
49801;BME280;35698;50.232;30.540;2022-09-09T04:02:21;101132.16;;;12.97;52.49
49801;BME280;35698;50.232;30.540;2022-09-09T04:03:32;101137.80;;;13.06;52.45
49801;BME280;35698;50.232;30.540;2022-09-09T04:04:36;101145.50;;;12.95;52.55
49801;BME280;35698;50.232;30.540;2022-09-09T04:05:39;101150.19;;;12.90;52.76
49801;BME280;35698;50.232;30.540;2022-09-09T04:06:50;101153.02;;;13.03;52.85
49801;BME280;35698;50.232;30.540;2022-09-09T04:07:54;101141.05;;;12.96;52.86
49801;BME280;35698;50.232;30.540;2022-09-09T04:09:05;101144.91;;;13.06;52.91
49801;BME280;35698;50.232;30.540;2022-09-09T04:10:10;101141.30;;;12.91;53.02
49801;BME280;35698;50.232;30.540;2022-09-09T04:11:14;101141.99;;;12.95;53.03
49801;BME280;35698;50.232;30.540;2022-09-09T04:12:18;101138.33;;;12.97;52.94
49801;BME280;35698;50.232;30.540;2022-09-09T04:13:29;101135.59;;;13.14;52.77
49801;BME280;35698;50.232;30.540;2022-09-09T04:14:33;101143.11;;;13.06;52.52
49801;BME280;35698;50.232;30.540;2022-09-09T04:15:36;101139.97;;;13.16;52.24
49801;BME280;35698;50.232;30.540;2022-09-09T04:16:39;101140.69;;;13.19;52.23
49801;BME280;35698;50.232;30.540;2022-09-09T04:17:43;101136.16;;;13.21;52.13
49801;BME280;35698;50.232;30.540;2022-09-09T04:18:54;101131.05;;;13.34;52.20
49801;BME280;35698;50.232;30.540;2022-09-09T04:19:57;101134.03;;;13.28;52.25
49801;BME280;35698;50.232;30.540;2022-09-09T04:21:01;101135.58;;;13.32;52.12
49801;BME280;35698;50.232;30.540;2022-09-09T04:22:05;101143.38;;;13.35;52.09
49801;BME280;35698;50.232;30.540;2022-09-09T04:23:08;101140.55;;;13.38;52.08
49801;BME280;35698;50.232;30.540;2022-09-09T04:24:19;101150.59;;;13.49;51.93
49801;BME280;35698;50.232;30.540;2022-09-09T04:25:23;101152.11;;;13.37;51.94
49801;BME280;35698;50.232;30.540;2022-09-09T04:26:27;101159.98;;;13.38;52.05
49801;BME280;35698;50.232;30.540;2022-09-09T04:27:30;101157.95;;;13.43;51.97
49801;BME280;35698;50.232;30.540;2022-09-09T04:28:41;101155.14;;;13.62;51.94
49801;BME280;35698;50.232;30.540;2022-09-09T04:29:45;101159.23;;;13.52;51.73
49801;BME280;35698;50.232;30.540;2022-09-09T04:30:48;101155.64;;;13.53;51.77
49801;BME280;35698;50.232;30.540;2022-09-09T04:31:52;101150.17;;;13.56;51.69
49801;BME280;35698;50.232;30.540;2022-09-09T04:32:56;101154.45;;;13.59;51.77
49801;BME280;35698;50.232;30.540;2022-09-09T04:34:09;101158.14;;;13.72;51.83
49801;BME280;35698;50.232;30.540;2022-09-09T04:35:12;101151.45;;;13.65;51.78
49801;BME280;35698;50.232;30.540;2022-09-09T04:36:17;101153.17;;;13.66;51.84
49801;BME280;35698;50.232;30.540;2022-09-09T04:37:28;101157.25;;;13.87;51.79
49801;BME280;35698;50.232;30.540;2022-09-09T04:38:32;101148.63;;;13.84;51.71
49801;BME280;35698;50.232;30.540;2022-09-09T04:39:35;101150.83;;;13.91;51.65
49801;BME280;35698;50.232;30.540;2022-09-09T04:40:47;101153.97;;;14.14;51.58
49801;BME280;35698;50.232;30.540;2022-09-09T04:41:51;101154.15;;;14.10;51.58
49801;BME280;35698;50.232;30.540;2022-09-09T04:42:55;101158.08;;;14.19;51.36
49801;BME280;35698;50.232;30.540;2022-09-09T04:43:58;101162.01;;;14.28;51.46
49801;BME280;35698;50.232;30.540;2022-09-09T04:45:02;101165.84;;;14.38;51.31
49801;BME280;35698;50.232;30.540;2022-09-09T04:46:13;101173.36;;;14.61;51.14
49801;BME280;35698;50.232;30.540;2022-09-09T04:47:19;101173.55;;;14.58;50.86
49801;BME280;35698;50.232;30.540;2022-09-09T04:48:22;101168.63;;;14.66;50.79
49801;BME280;35698;50.232;30.540;2022-09-09T04:49:34;101169.88;;;14.89;50.54
49801;BME280;35698;50.232;30.540;2022-09-09T04:50:38;101176.15;;;14.88;50.54
49801;BME280;35698;50.232;30.540;2022-09-09T04:51:50;101173.05;;;15.10;50.36
49801;BME280;35698;50.232;30.540;2022-09-09T04:52:53;101169.44;;;15.11;50.25
49801;BME280;35698;50.232;30.540;2022-09-09T04:53:57;101159.84;;;15.23;50.05
49801;BME280;35698;50.232;30.540;2022-09-09T04:55:08;101165.44;;;15.47;49.86
49801;BME280;35698;50.232;30.540;2022-09-09T04:56:14;101170.01;;;15.45;49.53
49801;BME280;35698;50.232;30.540;2022-09-09T04:57:18;101163.16;;;15.55;49.33
49801;BME280;35698;50.232;30.540;2022-09-09T04:58:29;101169.39;;;15.82;49.00
49801;BME280;35698;50.232;30.540;2022-09-09T04:59:32;101166.06;;;15.79;48.84
49801;BME280;35698;50.232;30.540;2022-09-09T05:01:02;101166.33;;;15.88;48.58
49801;BME280;35698;50.232;30.540;2022-09-09T05:02:02;101161.91;;;16.01;48.41
49801;BME280;35698;50.232;30.540;2022-09-09T05:03:06;101157.59;;;16.13;48.14
49801;BME280;35698;50.232;30.540;2022-09-09T05:04:17;101158.09;;;16.32;47.95
49801;BME280;35698;50.232;30.540;2022-09-09T05:05:21;101152.95;;;16.29;47.75
49801;BME280;35698;50.232;30.540;2022-09-09T05:06:32;101150.43;;;16.53;47.24
49801;BME280;35698;50.232;30.540;2022-09-09T05:07:35;101151.59;;;16.49;47.00
49801;BME280;35698;50.232;30.540;2022-09-09T05:08:46;101157.43;;;16.68;47.03
49801;BME280;35698;50.232;30.540;2022-09-09T05:09:50;101154.86;;;16.67;47.07
49801;BME280;35698;50.232;30.540;2022-09-09T05:11:01;101158.52;;;16.91;46.46
49801;BME280;35698;50.232;30.540;2022-09-09T05:12:25;101160.66;;;16.86;46.34
49801;BME280;35698;50.232;30.540;2022-09-09T05:13:30;101156.49;;;16.95;46.11
49801;BME280;35698;50.232;30.540;2022-09-09T05:14:41;101155.75;;;17.18;45.70
49801;BME280;35698;50.232;30.540;2022-09-09T05:15:52;101151.59;;;17.14;45.84
49801;BME280;35698;50.232;30.540;2022-09-09T05:17:03;101149.19;;;17.35;45.51
49801;BME280;35698;50.232;30.540;2022-09-09T05:18:07;101148.47;;;17.33;45.20
49801;BME280;35698;50.232;30.540;2022-09-09T05:19:10;101145.33;;;17.39;45.12
49801;BME280;35698;50.232;30.540;2022-09-09T05:20:14;101140.30;;;17.47;44.94
49801;BME280;35698;50.232;30.540;2022-09-09T05:21:25;101143.47;;;17.65;44.63
49801;BME280;35698;50.232;30.540;2022-09-09T05:22:48;101139.20;;;17.62;44.59
49801;BME280;35698;50.232;30.540;2022-09-09T05:23:53;101139.75;;;17.67;44.51
49801;BME280;35698;50.232;30.540;2022-09-09T05:26:03;101140.16;;;17.74;44.28
49801;BME280;35698;50.232;30.540;2022-09-09T05:27:07;101137.04;;;17.80;44.28
49801;BME280;35698;50.232;30.540;2022-09-09T05:28:18;101141.03;;;17.98;44.46
49801;BME280;35698;50.232;30.540;2022-09-09T05:29:21;101139.44;;;17.96;44.36
49801;BME280;35698;50.232;30.540;2022-09-09T05:30:25;101143.25;;;18.05;43.79
49801;BME280;35698;50.232;30.540;2022-09-09T05:31:36;101143.45;;;18.25;43.54
49801;BME280;35698;50.232;30.540;2022-09-09T05:32:40;101142.12;;;18.20;43.42
49801;BME280;35698;50.232;30.540;2022-09-09T05:33:44;101138.84;;;18.27;43.29
49801;BME280;35698;50.232;30.540;2022-09-09T05:34:55;101131.75;;;18.50;42.93
49801;BME280;35698;50.232;30.540;2022-09-09T05:36:01;101134.66;;;18.47;42.69
49801;BME280;35698;50.232;30.540;2022-09-09T05:37:08;101133.45;;;18.51;42.45
49801;BME280;35698;50.232;30.540;2022-09-09T05:38:19;101141.70;;;18.72;42.21
49801;BME280;35698;50.232;30.540;2022-09-09T05:39:23;101146.31;;;18.70;42.03
49801;BME280;35698;50.232;30.540;2022-09-09T05:40:34;101150.02;;;18.91;41.16
49801;BME280;35698;50.232;30.540;2022-09-09T05:41:37;101146.61;;;18.89;41.21
49801;BME280;35698;50.232;30.540;2022-09-09T05:42:49;101144.89;;;19.11;41.00
49801;BME280;35698;50.232;30.540;2022-09-09T05:43:52;101143.43;;;19.07;40.85
49801;BME280;35698;50.232;30.540;2022-09-09T05:45:05;101140.03;;;19.27;40.47
49801;BME280;35698;50.232;30.540;2022-09-09T05:46:11;101139.67;;;19.20;40.10
49801;BME280;35698;50.232;30.540;2022-09-09T05:47:15;101143.69;;;19.26;40.34
49801;BME280;35698;50.232;30.540;2022-09-09T05:48:47;101143.20;;;19.43;39.91
49801;BME280;35698;50.232;30.540;2022-09-09T05:49:51;101142.72;;;19.38;39.94
49801;BME280;35698;50.232;30.540;2022-09-09T05:51:03;101142.98;;;19.57;39.66
49801;BME280;35698;50.232;30.540;2022-09-09T05:52:06;101141.73;;;19.50;39.81
49801;BME280;35698;50.232;30.540;2022-09-09T05:53:18;101142.11;;;19.68;39.57
49801;BME280;35698;50.232;30.540;2022-09-09T05:54:41;101144.56;;;19.60;39.58
49801;BME280;35698;50.232;30.540;2022-09-09T05:56:00;101144.17;;;19.76;39.22
49801;BME280;35698;50.232;30.540;2022-09-09T05:57:04;101140.53;;;19.66;39.35
49801;BME280;35698;50.232;30.540;2022-09-09T05:58:07;101148.58;;;19.66;39.21
49801;BME280;35698;50.232;30.540;2022-09-09T05:59:19;101149.28;;;19.79;38.95
49801;BME280;35698;50.232;30.540;2022-09-09T06:00:23;101154.55;;;19.69;39.09
49801;BME280;35698;50.232;30.540;2022-09-09T06:01:36;101156.10;;;19.83;39.12
49801;BME280;35698;50.232;30.540;2022-09-09T06:02:40;101159.66;;;19.72;38.98
49801;BME280;35698;50.232;30.540;2022-09-09T06:03:51;101160.97;;;19.89;39.10
49801;BME280;35698;50.232;30.540;2022-09-09T06:04:55;101153.55;;;19.81;39.16
49801;BME280;35698;50.232;30.540;2022-09-09T06:06:09;101156.52;;;19.99;38.99
49801;BME280;35698;50.232;30.540;2022-09-09T06:07:12;101150.84;;;19.92;38.77
49801;BME280;35698;50.232;30.540;2022-09-09T06:08:24;101148.45;;;20.10;38.77
49801;BME280;35698;50.232;30.540;2022-09-09T06:09:27;101148.09;;;20.04;38.91
49801;BME280;35698;50.232;30.540;2022-09-09T06:10:32;101143.93;;;20.11;38.93
49801;BME280;35698;50.232;30.540;2022-09-09T06:11:43;101150.33;;;20.30;38.59
49801;BME280;35698;50.232;30.540;2022-09-09T06:12:47;101149.13;;;20.23;38.42
49801;BME280;35698;50.232;30.540;2022-09-09T06:13:59;101143.24;;;20.41;38.01
49801;BME280;35698;50.232;30.540;2022-09-09T06:15:04;101148.11;;;20.36;37.82
49801;BME280;35698;50.232;30.540;2022-09-09T06:16:09;101144.22;;;20.40;37.76
49801;BME280;35698;50.232;30.540;2022-09-09T06:17:15;101149.20;;;20.44;37.65
49801;BME280;35698;50.232;30.540;2022-09-09T06:18:19;101153.20;;;20.50;37.53
49801;BME280;35698;50.232;30.540;2022-09-09T06:19:22;101153.92;;;20.52;37.44
49801;BME280;35698;50.232;30.540;2022-09-09T06:20:33;101156.16;;;20.68;37.52
49801;BME280;35698;50.232;30.540;2022-09-09T06:21:37;101156.55;;;20.63;37.50
49801;BME280;35698;50.232;30.540;2022-09-09T06:22:48;101162.87;;;20.83;37.35
49801;BME280;35698;50.232;30.540;2022-09-09T06:23:52;101158.92;;;20.77;37.06
49801;BME280;35698;50.232;30.540;2022-09-09T06:25:04;101157.44;;;20.94;36.76
49801;BME280;35698;50.232;30.540;2022-09-09T06:27:27;101160.45;;;21.01;36.61
49801;BME280;35698;50.232;30.540;2022-09-09T06:28:32;101159.27;;;20.93;36.78
49801;BME280;35698;50.232;30.540;2022-09-09T06:29:43;101161.36;;;21.11;36.63
49801;BME280;35698;50.232;30.540;2022-09-09T06:30:47;101159.91;;;21.07;36.45
49801;BME280;35698;50.232;30.540;2022-09-09T06:31:58;101152.63;;;21.18;36.40
49801;BME280;35698;50.232;30.540;2022-09-09T06:33:02;101157.69;;;21.12;36.40
49801;BME280;35698;50.232;30.540;2022-09-09T06:34:13;101158.08;;;21.28;36.13
49801;BME280;35698;50.232;30.540;2022-09-09T06:35:17;101158.00;;;21.18;36.08
49801;BME280;35698;50.232;30.540;2022-09-09T06:37:56;101158.66;;;21.32;35.95
49801;BME280;35698;50.232;30.540;2022-09-09T06:39:00;101158.94;;;21.29;36.09
49801;BME280;35698;50.232;30.540;2022-09-09T06:40:05;101164.75;;;21.34;35.68
49801;BME280;35698;50.232;30.540;2022-09-09T06:41:18;101160.58;;;21.50;35.51
49801;BME280;35698;50.232;30.540;2022-09-09T06:42:23;101158.44;;;21.44;35.74
49801;BME280;35698;50.232;30.540;2022-09-09T06:43:34;101155.95;;;21.62;35.56
49801;BME280;35698;50.232;30.540;2022-09-09T06:44:39;101147.72;;;21.54;35.71
49801;BME280;35698;50.232;30.540;2022-09-09T06:47:11;101144.53;;;21.89;35.50
49801;BME280;35698;50.232;30.540;2022-09-09T06:48:15;101137.86;;;21.83;35.53
49801;BME280;35698;50.232;30.540;2022-09-09T06:49:26;101145.87;;;22.14;35.21
49801;BME280;35698;50.232;30.540;2022-09-09T06:50:30;101143.31;;;22.03;35.22
49801;BME280;35698;50.232;30.540;2022-09-09T06:51:41;101144.89;;;22.24;34.83
49801;BME280;35698;50.232;30.540;2022-09-09T06:52:46;101145.31;;;22.20;34.18